Time;durP1;ratioP1;P1;durP2;ratioP2;P2;SDS_P1;SDS_P2;PMS_P1;PMS_P2;Temp;Humidity;BMP_temperature;BMP_pressure;BME280_temperature;BME280_humidity;BME280_pressure;Samples;Min_cycle;Max_cycle;Signal;HPM_P1;HPM_P2
2021/12/31 00:02:24;;;;;;;;;;;20.20;47.20;;;;;;5073120;28;19939;-48
2021/12/31 00:04:52;;;;;;;;;;;20.10;47.10;;;;;;5082568;28;20458;-44
2021/12/31 00:07:19;;;;;;;;;;;20.10;47.10;;;;;;5088928;28;19935;-48
2021/12/31 00:09:47;;;;;;;;;;;20.10;47.00;;;;;;5080546;28;20017;-46
2021/12/31 00:12:14;;;;;;;;;;;20.10;47.10;;;;;;5077350;28;20018;-50
2021/12/31 00:14:40;;;;;;;;;;;20.10;47.10;;;;;;5099162;28;20014;-51
2021/12/31 00:17:07;;;;;;;;;;;20.10;47.10;;;;;;5104255;28;19989;-46
2021/12/31 00:19:39;;;;;;;;;;;20.10;47.10;;;;;;5078963;28;19938;-47
2021/12/31 00:22:29;;;;;;;;;;;20.10;47.10;;;;;;5090295;28;20034;-46
2021/12/31 00:24:56;;;;;;;;;;;20.10;47.10;;;;;;5087899;28;19924;-48
2021/12/31 00:27:22;;;;;;;;;;;20.10;47.10;;;;;;5089199;28;20288;-43
2021/12/31 00:29:49;;;;;;;;;;;20.10;47.10;;;;;;5089818;28;19928;-43
2021/12/31 00:32:18;;;;;;;;;;;20.10;47.10;;;;;;5100186;28;19924;-43
2021/12/31 00:34:45;;;;;;;;;;;20.10;47.10;;;;;;5082191;28;19935;-45
2021/12/31 00:37:13;;;;;;;;;;;20.10;47.10;;;;;;5089992;28;19926;-48
2021/12/31 00:39:39;;;;;;;;;;;20.10;47.10;;;;;;5084969;28;19924;-43
2021/12/31 00:42:06;;;;;;;;;;;20.10;47.10;;;;;;5090410;28;19970;-46
2021/12/31 00:44:33;;;;;;;;;;;20.10;47.10;;;;;;5082440;28;20066;-43
2021/12/31 00:47:00;;;;;;;;;;;20.10;47.10;;;;;;5081261;28;20015;-43
2021/12/31 00:49:27;;;;;;;;;;;20.10;47.20;;;;;;5094177;28;20010;-48
2021/12/31 00:51:54;;;;;;;;;;;20.10;47.10;;;;;;5073905;28;19988;-46
2021/12/31 00:54:22;;;;;;;;;;;20.10;47.20;;;;;;5075160;27;19978;-46
2021/12/31 00:56:48;;;;;;;;;;;20.10;47.20;;;;;;5093860;28;20315;-48
2021/12/31 00:59:15;;;;;;;;;;;20.10;47.20;;;;;;5092713;28;20346;-44
2021/12/31 01:01:42;;;;;;;;;;;20.10;47.10;;;;;;5081308;28;19943;-47
2021/12/31 01:04:09;;;;;;;;;;;20.10;47.10;;;;;;5073315;28;20279;-50
2021/12/31 01:06:36;;;;;;;;;;;20.10;47.20;;;;;;5105083;28;19932;-48
2021/12/31 01:09:02;;;;;;;;;;;20.10;47.10;;;;;;5086910;28;19955;-46
2021/12/31 01:11:31;;;;;;;;;;;20.10;47.20;;;;;;5108726;27;20394;-43
2021/12/31 01:14:02;;;;;;;;;;;20.10;47.20;;;;;;5092716;28;19931;-44
2021/12/31 01:16:37;;;;;;;;;;;20.10;47.20;;;;;;5093168;28;19923;-48
2021/12/31 01:21:48;;;;;;;;;;;20.10;47.20;;;;;;5110238;27;19931;-48
2021/12/31 01:24:15;;;;;;;;;;;20.10;47.20;;;;;;5113395;27;20592;-51
2021/12/31 01:26:43;;;;;;;;;;;20.10;47.20;;;;;;5085136;28;19994;-48
2021/12/31 01:29:09;;;;;;;;;;;20.10;47.20;;;;;;5091373;28;20427;-45
2021/12/31 01:31:36;;;;;;;;;;;20.10;47.20;;;;;;5087390;28;19924;-44
2021/12/31 01:34:03;;;;;;;;;;;20.10;47.20;;;;;;5094741;28;20279;-47
2021/12/31 01:36:30;;;;;;;;;;;20.10;47.20;;;;;;5110783;28;19977;-47
2021/12/31 01:38:57;;;;;;;;;;;20.10;47.20;;;;;;5093433;28;20513;-50
2021/12/31 01:41:23;;;;;;;;;;;20.10;47.20;;;;;;5104691;28;20447;-49
2021/12/31 01:43:52;;;;;;;;;;;20.10;47.20;;;;;;5094127;28;19931;-46
2021/12/31 01:46:19;;;;;;;;;;;20.10;47.20;;;;;;5086182;28;19927;-43
2021/12/31 01:49:01;;;;;;;;;;;20.10;47.20;;;;;;5077846;28;19924;-53
2021/12/31 01:51:28;;;;;;;;;;;20.10;47.20;;;;;;5085809;28;19928;-48
2021/12/31 01:53:55;;;;;;;;;;;20.10;47.20;;;;;;5089641;28;19928;-49
2021/12/31 01:56:22;;;;;;;;;;;20.10;47.20;;;;;;5101797;27;20022;-47
2021/12/31 01:58:49;;;;;;;;;;;20.10;47.20;;;;;;5109886;28;19928;-47
2021/12/31 02:01:17;;;;;;;;;;;20.10;47.20;;;;;;5092515;28;19973;-45
2021/12/31 02:03:44;;;;;;;;;;;20.10;47.20;;;;;;5093139;28;19938;-43
2021/12/31 02:06:11;;;;;;;;;;;20.10;47.20;;;;;;5092589;28;20039;-50
2021/12/31 02:08:37;;;;;;;;;;;20.10;47.20;;;;;;5076274;28;19924;-48
2021/12/31 02:11:04;;;;;;;;;;;20.10;47.20;;;;;;5080820;28;19967;-44
2021/12/31 02:13:31;;;;;;;;;;;20.10;47.20;;;;;;5092435;28;19924;-48
2021/12/31 02:15:57;;;;;;;;;;;20.10;47.20;;;;;;5089095;28;19923;-46
2021/12/31 02:18:27;;;;;;;;;;;20.10;47.20;;;;;;5110144;28;20018;-47
2021/12/31 02:20:56;;;;;;;;;;;20.10;47.30;;;;;;5092486;28;20026;-50
2021/12/31 02:23:25;;;;;;;;;;;20.10;47.20;;;;;;5110190;28;19968;-45
2021/12/31 02:25:52;;;;;;;;;;;20.10;47.20;;;;;;5091441;28;19931;-49
2021/12/31 02:28:19;;;;;;;;;;;20.10;47.20;;;;;;5091967;28;19924;-45
2021/12/31 02:30:46;;;;;;;;;;;20.10;47.20;;;;;;5092322;28;19924;-49
2021/12/31 02:33:13;;;;;;;;;;;20.10;47.20;;;;;;5089973;28;19924;-51
2021/12/31 02:35:40;;;;;;;;;;;20.10;47.20;;;;;;5076925;28;19930;-46
2021/12/31 02:38:08;;;;;;;;;;;20.10;47.20;;;;;;5110750;28;19927;-43
2021/12/31 02:40:35;;;;;;;;;;;20.10;47.30;;;;;;5091562;28;19932;-45
2021/12/31 02:43:02;;;;;;;;;;;20.10;47.20;;;;;;5091375;28;20063;-49
2021/12/31 02:45:31;;;;;;;;;;;20.10;47.20;;;;;;5085932;28;19974;-49
2021/12/31 02:48:00;;;;;;;;;;;20.10;47.20;;;;;;5091749;28;20428;-48
2021/12/31 02:50:33;;;;;;;;;;;20.10;47.20;;;;;;5091990;28;19923;-43
2021/12/31 02:53:00;;;;;;;;;;;20.10;47.20;;;;;;5085765;28;19958;-51
2021/12/31 02:55:30;;;;;;;;;;;20.10;47.30;;;;;;5110114;28;19924;-46
2021/12/31 02:57:57;;;;;;;;;;;20.10;47.20;;;;;;5091316;28;20046;-44
2021/12/31 03:00:24;;;;;;;;;;;20.10;47.30;;;;;;5072341;28;19998;-46
2021/12/31 03:02:51;;;;;;;;;;;20.10;47.20;;;;;;5097557;28;19923;-52
2021/12/31 03:05:18;;;;;;;;;;;20.10;47.20;;;;;;5092036;28;19963;-46
2021/12/31 03:07:46;;;;;;;;;;;20.10;47.20;;;;;;5104536;28;19927;-45
2021/12/31 03:10:13;;;;;;;;;;;20.10;47.30;;;;;;5076038;28;19975;-48
2021/12/31 03:12:41;;;;;;;;;;;20.10;47.20;;;;;;5078170;28;19930;-45
2021/12/31 03:15:08;;;;;;;;;;;20.10;47.20;;;;;;5090914;28;20010;-51
2021/12/31 03:17:35;;;;;;;;;;;20.10;47.20;;;;;;5088368;28;20401;-49
2021/12/31 03:20:10;;;;;;;;;;;20.10;47.20;;;;;;5080332;28;19954;-44
2021/12/31 03:22:37;;;;;;;;;;;20.10;47.20;;;;;;5107493;28;19934;-45
2021/12/31 03:25:05;;;;;;;;;;;20.10;47.20;;;;;;5102036;28;20015;-48
2021/12/31 03:27:32;;;;;;;;;;;20.10;47.20;;;;;;5088978;27;19931;-43
2021/12/31 03:30:00;;;;;;;;;;;20.10;47.20;;;;;;5131189;27;19931;-47
2021/12/31 03:32:27;;;;;;;;;;;20.10;47.20;;;;;;5113851;27;19984;-47
2021/12/31 03:34:53;;;;;;;;;;;20.10;47.30;;;;;;5110518;28;19932;-43
2021/12/31 03:37:20;;;;;;;;;;;20.10;47.30;;;;;;5091710;27;19924;-50
2021/12/31 03:39:47;;;;;;;;;;;20.10;47.30;;;;;;5110685;27;20338;-48
2021/12/31 03:42:16;;;;;;;;;;;20.10;47.20;;;;;;5098512;27;19928;-43
2021/12/31 03:44:43;;;;;;;;;;;20.10;47.30;;;;;;5084005;28;19928;-46
2021/12/31 03:47:11;;;;;;;;;;;20.10;47.30;;;;;;5084119;28;19969;-44
2021/12/31 03:49:37;;;;;;;;;;;20.10;47.30;;;;;;5094308;28;19972;-48
2021/12/31 03:52:04;;;;;;;;;;;20.10;47.30;;;;;;5088426;28;19924;-45
2021/12/31 03:54:31;;;;;;;;;;;20.10;47.20;;;;;;5101384;28;19927;-45
2021/12/31 03:56:57;;;;;;;;;;;20.10;47.30;;;;;;5090308;28;19924;-45
2021/12/31 03:59:24;;;;;;;;;;;20.10;47.30;;;;;;5091140;28;19924;-43
2021/12/31 04:01:51;;;;;;;;;;;20.10;47.30;;;;;;5090442;28;19924;-43
2021/12/31 04:04:19;;;;;;;;;;;20.10;47.30;;;;;;5081325;28;19924;-47
2021/12/31 04:06:46;;;;;;;;;;;20.10;47.30;;;;;;5096414;28;19927;-46
2021/12/31 04:09:12;;;;;;;;;;;20.10;47.30;;;;;;5091010;28;19934;-50
2021/12/31 04:11:39;;;;;;;;;;;20.10;47.30;;;;;;5090559;28;19930;-52
2021/12/31 04:14:06;;;;;;;;;;;20.10;47.30;;;;;;5091609;28;19923;-42
2021/12/31 04:16:32;;;;;;;;;;;20.10;47.30;;;;;;5084775;28;19930;-45
2021/12/31 04:18:59;;;;;;;;;;;20.10;47.30;;;;;;5108572;28;19924;-53
2021/12/31 04:21:30;;;;;;;;;;;20.10;47.30;;;;;;5085622;28;19943;-47
2021/12/31 04:24:06;;;;;;;;;;;20.10;47.30;;;;;;5096539;28;20426;-46
2021/12/31 04:26:33;;;;;;;;;;;20.10;47.30;;;;;;5095285;28;19928;-43
2021/12/31 04:29:00;;;;;;;;;;;20.10;47.30;;;;;;5094897;28;20027;-45
2021/12/31 04:31:27;;;;;;;;;;;20.10;47.30;;;;;;5090714;28;20010;-46
2021/12/31 04:33:54;;;;;;;;;;;20.10;47.30;;;;;;5075826;27;20494;-47
2021/12/31 04:36:21;;;;;;;;;;;20.10;47.30;;;;;;5104651;28;20283;-46
2021/12/31 04:38:49;;;;;;;;;;;20.10;47.30;;;;;;5086749;28;19952;-44
2021/12/31 04:41:16;;;;;;;;;;;20.10;47.30;;;;;;5112919;28;19927;-45
2021/12/31 04:43:43;;;;;;;;;;;20.10;47.30;;;;;;5091383;28;20285;-45
2021/12/31 04:46:10;;;;;;;;;;;20.10;47.30;;;;;;5110190;28;19955;-46
2021/12/31 04:48:37;;;;;;;;;;;20.10;47.30;;;;;;5093763;28;20189;-46
2021/12/31 04:51:04;;;;;;;;;;;20.10;47.30;;;;;;5093448;28;19967;-46
2021/12/31 04:53:31;;;;;;;;;;;20.10;47.30;;;;;;5095231;28;20022;-45
2021/12/31 04:55:59;;;;;;;;;;;20.10;47.30;;;;;;5111542;28;19973;-47
2021/12/31 04:58:26;;;;;;;;;;;20.10;47.30;;;;;;5112530;28;19931;-45
2021/12/31 05:00:52;;;;;;;;;;;20.10;47.30;;;;;;5107608;27;19923;-47
2021/12/31 05:03:20;;;;;;;;;;;20.10;47.30;;;;;;5094918;28;19959;-49
2021/12/31 05:05:46;;;;;;;;;;;20.10;47.30;;;;;;5094081;28;20033;-46
2021/12/31 05:08:13;;;;;;;;;;;20.10;47.30;;;;;;5088495;28;19931;-44
2021/12/31 05:10:40;;;;;;;;;;;20.10;47.30;;;;;;5083488;28;19966;-45
2021/12/31 05:13:10;;;;;;;;;;;20.10;47.30;;;;;;5092766;28;19931;-48
2021/12/31 05:15:44;;;;;;;;;;;20.10;47.30;;;;;;5093863;28;19934;-50
2021/12/31 05:18:10;;;;;;;;;;;20.10;47.40;;;;;;5112504;28;19935;-44
2021/12/31 05:20:37;;;;;;;;;;;20.10;47.30;;;;;;5086632;28;19934;-44
2021/12/31 05:23:04;;;;;;;;;;;20.10;47.30;;;;;;5093730;28;19936;-52
2021/12/31 05:25:31;;;;;;;;;;;20.10;47.30;;;;;;5083043;28;20030;-51
2021/12/31 05:27:58;;;;;;;;;;;20.10;47.30;;;;;;5087383;28;19943;-48
2021/12/31 05:30:26;;;;;;;;;;;20.10;47.30;;;;;;5076646;28;20388;-44
2021/12/31 05:32:53;;;;;;;;;;;20.10;47.30;;;;;;5092538;28;20340;-50
2021/12/31 05:35:19;;;;;;;;;;;20.10;47.30;;;;;;5095850;28;19990;-44
2021/12/31 05:37:46;;;;;;;;;;;20.10;47.30;;;;;;5097872;27;19934;-51
2021/12/31 05:40:13;;;;;;;;;;;20.10;47.30;;;;;;5085241;28;19974;-44
2021/12/31 05:42:40;;;;;;;;;;;20.10;47.30;;;;;;5093033;28;20014;-46
2021/12/31 05:45:09;;;;;;;;;;;20.10;47.30;;;;;;5093605;28;20268;-45
2021/12/31 05:47:38;;;;;;;;;;;20.10;47.30;;;;;;5080626;28;19928;-51
2021/12/31 05:50:07;;;;;;;;;;;20.10;47.30;;;;;;5074129;28;20024;-45
2021/12/31 05:52:35;;;;;;;;;;;20.10;47.30;;;;;;5093776;28;20014;-46
2021/12/31 05:55:05;;;;;;;;;;;20.10;47.30;;;;;;5112378;28;19924;-47
2021/12/31 05:57:31;;;;;;;;;;;20.10;47.40;;;;;;5081782;28;20396;-44
2021/12/31 05:59:58;;;;;;;;;;;20.10;47.30;;;;;;5073178;28;20345;-44
2021/12/31 06:02:25;;;;;;;;;;;20.10;47.30;;;;;;5090524;28;19967;-48
2021/12/31 06:04:53;;;;;;;;;;;20.10;47.40;;;;;;5080337;28;19982;-44
2021/12/31 06:07:20;;;;;;;;;;;20.10;47.30;;;;;;5082805;28;19920;-50
2021/12/31 06:09:46;;;;;;;;;;;20.10;47.30;;;;;;5091338;28;20403;-46
2021/12/31 06:12:13;;;;;;;;;;;20.10;47.30;;;;;;5091947;28;19923;-46
2021/12/31 06:14:40;;;;;;;;;;;20.10;47.40;;;;;;5089566;28;20372;-45
2021/12/31 06:17:08;;;;;;;;;;;20.10;47.30;;;;;;5096939;28;19969;-45
2021/12/31 06:19:35;;;;;;;;;;;20.10;47.40;;;;;;5110566;28;20084;-49
2021/12/31 06:22:03;;;;;;;;;;;20.10;47.30;;;;;;5091729;28;19928;-50
2021/12/31 06:24:30;;;;;;;;;;;20.20;47.40;;;;;;5091686;28;20420;-44
2021/12/31 06:26:57;;;;;;;;;;;20.10;47.30;;;;;;5092915;28;19924;-44
2021/12/31 06:29:24;;;;;;;;;;;20.10;47.30;;;;;;5081827;28;20373;-48
2021/12/31 06:31:51;;;;;;;;;;;20.20;47.40;;;;;;5077424;28;19954;-45
2021/12/31 06:34:18;;;;;;;;;;;20.10;47.30;;;;;;5109227;28;19934;-47
2021/12/31 06:36:45;;;;;;;;;;;20.10;47.30;;;;;;5092118;28;19961;-48
2021/12/31 06:39:13;;;;;;;;;;;20.10;47.40;;;;;;5107279;27;20214;-46
2021/12/31 06:41:39;;;;;;;;;;;20.10;47.30;;;;;;5128617;27;20022;-44
2021/12/31 06:44:06;;;;;;;;;;;20.10;47.30;;;;;;5090699;28;20334;-47
2021/12/31 06:46:33;;;;;;;;;;;20.10;47.30;;;;;;5109937;28;20022;-50
2021/12/31 06:49:00;;;;;;;;;;;20.10;47.40;;;;;;5093329;28;19978;-49
2021/12/31 06:51:26;;;;;;;;;;;20.10;47.30;;;;;;5082527;28;19990;-46
2021/12/31 06:53:53;;;;;;;;;;;20.10;47.30;;;;;;5091449;28;19984;-44
2021/12/31 06:56:21;;;;;;;;;;;20.10;47.30;;;;;;5090858;28;19928;-47
2021/12/31 06:58:48;;;;;;;;;;;20.10;47.30;;;;;;5092896;28;20511;-45
2021/12/31 07:01:14;;;;;;;;;;;20.10;47.30;;;;;;5091355;28;19967;-51
2021/12/31 07:03:41;;;;;;;;;;;20.10;47.30;;;;;;5083226;28;19927;-46
2021/12/31 07:06:08;;;;;;;;;;;20.10;47.30;;;;;;5089600;28;19924;-44
2021/12/31 07:08:35;;;;;;;;;;;20.10;47.40;;;;;;5088090;28;19958;-45
2021/12/31 07:11:02;;;;;;;;;;;20.10;47.30;;;;;;5089353;28;19924;-44
2021/12/31 07:13:30;;;;;;;;;;;20.10;47.30;;;;;;5109978;28;19946;-45
2021/12/31 07:15:57;;;;;;;;;;;20.10;47.30;;;;;;5090588;28;19992;-49
2021/12/31 07:18:24;;;;;;;;;;;20.10;47.30;;;;;;5088475;28;20335;-47
2021/12/31 07:20:51;;;;;;;;;;;20.10;47.30;;;;;;5090863;28;20018;-47
2021/12/31 07:23:18;;;;;;;;;;;20.10;47.40;;;;;;5095115;28;19985;-45
2021/12/31 07:25:45;;;;;;;;;;;20.10;47.30;;;;;;5090599;28;19963;-48
2021/12/31 07:28:12;;;;;;;;;;;20.10;47.30;;;;;;5104370;28;19934;-50
2021/12/31 07:30:40;;;;;;;;;;;20.10;47.30;;;;;;5087925;28;19959;-46
2021/12/31 07:33:13;;;;;;;;;;;20.10;47.30;;;;;;5085781;28;19923;-48
2021/12/31 07:35:40;;;;;;;;;;;20.20;47.40;;;;;;5084795;28;19931;-48
2021/12/31 07:38:07;;;;;;;;;;;20.10;47.30;;;;;;5103064;28;19928;-51
2021/12/31 07:40:39;;;;;;;;;;;20.10;47.30;;;;;;5086088;28;19934;-47
2021/12/31 07:43:06;;;;;;;;;;;20.10;47.30;;;;;;5084152;28;20588;-45
2021/12/31 07:45:33;;;;;;;;;;;20.10;47.30;;;;;;5086210;28;20038;-46
2021/12/31 07:48:01;;;;;;;;;;;20.20;47.40;;;;;;5084148;28;19955;-51
2021/12/31 07:50:27;;;;;;;;;;;20.20;47.40;;;;;;5085388;28;19930;-46
2021/12/31 07:52:54;;;;;;;;;;;20.10;47.30;;;;;;5083173;28;19932;-45
2021/12/31 07:55:21;;;;;;;;;;;20.20;47.40;;;;;;5103643;28;20022;-46
2021/12/31 07:57:48;;;;;;;;;;;20.10;47.30;;;;;;5099947;28;20430;-44
2021/12/31 08:00:15;;;;;;;;;;;20.10;47.30;;;;;;5081698;28;19928;-44
2021/12/31 08:02:42;;;;;;;;;;;20.10;47.30;;;;;;5097360;28;19971;-52
2021/12/31 08:05:11;;;;;;;;;;;20.20;47.40;;;;;;5084725;28;19932;-44
2021/12/31 08:07:39;;;;;;;;;;;20.10;47.30;;;;;;5084713;28;19923;-47
2021/12/31 08:10:09;;;;;;;;;;;20.20;47.40;;;;;;5084955;28;20078;-44
2021/12/31 08:12:36;;;;;;;;;;;20.20;47.40;;;;;;5076118;28;19942;-51
2021/12/31 08:15:03;;;;;;;;;;;20.20;47.40;;;;;;5097665;28;19932;-49
2021/12/31 08:17:30;;;;;;;;;;;20.20;47.40;;;;;;5102231;28;20288;-48
2021/12/31 08:19:57;;;;;;;;;;;20.10;47.30;;;;;;5083011;28;19939;-49
2021/12/31 08:22:25;;;;;;;;;;;20.10;47.40;;;;;;5085545;28;19935;-47
2021/12/31 08:24:52;;;;;;;;;;;20.20;47.40;;;;;;5101604;28;19927;-47
2021/12/31 08:27:18;;;;;;;;;;;20.20;47.40;;;;;;5085240;28;19927;-47
2021/12/31 08:29:45;;;;;;;;;;;20.20;47.40;;;;;;5084455;28;19928;-49
2021/12/31 08:32:12;;;;;;;;;;;20.20;47.40;;;;;;5106161;28;19979;-48
2021/12/31 08:34:38;;;;;;;;;;;20.20;47.30;;;;;;5085068;28;20026;-48
2021/12/31 08:37:05;;;;;;;;;;;20.20;47.30;;;;;;5105866;28;19932;-48
2021/12/31 08:39:35;;;;;;;;;;;20.10;47.20;;;;;;5088512;28;19927;-55
2021/12/31 08:42:02;;;;;;;;;;;20.20;47.30;;;;;;5087144;28;19934;-46
2021/12/31 08:44:29;;;;;;;;;;;20.20;47.30;;;;;;5086559;28;20355;-48
2021/12/31 08:46:55;;;;;;;;;;;20.20;47.30;;;;;;5087025;28;19951;-50
2021/12/31 08:49:23;;;;;;;;;;;20.20;47.30;;;;;;5086899;28;19928;-55
2021/12/31 08:51:50;;;;;;;;;;;20.20;47.30;;;;;;5087210;28;19950;-47
2021/12/31 08:54:17;;;;;;;;;;;20.20;47.30;;;;;;5087408;28;19928;-44
2021/12/31 08:56:45;;;;;;;;;;;20.20;47.30;;;;;;5086101;28;20025;-49
2021/12/31 08:59:12;;;;;;;;;;;20.20;47.30;;;;;;5102798;28;19927;-44
2021/12/31 09:01:39;;;;;;;;;;;20.20;47.30;;;;;;5101130;28;20368;-54
2021/12/31 09:04:06;;;;;;;;;;;20.20;47.30;;;;;;5064233;28;20323;-50
2021/12/31 09:06:33;;;;;;;;;;;20.20;47.30;;;;;;5102840;28;20288;-45
2021/12/31 09:08:59;;;;;;;;;;;20.20;47.30;;;;;;5086444;28;20027;-46
2021/12/31 09:11:26;;;;;;;;;;;20.20;47.30;;;;;;5110506;28;19923;-48
2021/12/31 09:13:55;;;;;;;;;;;20.20;47.30;;;;;;5091646;28;19928;-51
2021/12/31 09:16:22;;;;;;;;;;;20.20;47.30;;;;;;5109886;28;19935;-55
2021/12/31 09:18:49;;;;;;;;;;;20.20;47.30;;;;;;5090949;28;19928;-49
2021/12/31 09:21:17;;;;;;;;;;;20.20;47.30;;;;;;5091342;28;19931;-44
2021/12/31 09:23:44;;;;;;;;;;;20.20;47.30;;;;;;5086854;28;19971;-46
2021/12/31 09:26:11;;;;;;;;;;;20.20;47.30;;;;;;5109222;28;19928;-47
2021/12/31 09:28:38;;;;;;;;;;;20.20;47.30;;;;;;5090955;28;19975;-50
2021/12/31 09:31:08;;;;;;;;;;;20.20;47.30;;;;;;5092831;28;19928;-45
2021/12/31 09:33:35;;;;;;;;;;;20.20;47.30;;;;;;5110784;28;19946;-46
2021/12/31 09:36:02;;;;;;;;;;;20.20;47.30;;;;;;5091234;28;20030;-48
2021/12/31 09:38:29;;;;;;;;;;;20.20;47.30;;;;;;5109533;28;19989;-48
2021/12/31 09:40:56;;;;;;;;;;;20.20;47.30;;;;;;5091917;28;19924;-53
2021/12/31 09:43:22;;;;;;;;;;;20.20;47.30;;;;;;5091369;28;20047;-48
2021/12/31 09:45:50;;;;;;;;;;;20.20;47.30;;;;;;5086276;28;19935;-47
2021/12/31 09:48:19;;;;;;;;;;;20.20;47.30;;;;;;5087765;28;19924;-44
2021/12/31 09:50:46;;;;;;;;;;;20.20;47.30;;;;;;5101512;27;19924;-44
2021/12/31 09:53:13;;;;;;;;;;;20.20;47.30;;;;;;5085388;28;20023;-48
2021/12/31 09:55:41;;;;;;;;;;;20.20;47.30;;;;;;5092117;28;20023;-47
2021/12/31 09:58:09;;;;;;;;;;;20.20;47.30;;;;;;5084205;28;20606;-49
2021/12/31 10:00:36;;;;;;;;;;;20.20;47.40;;;;;;5093832;28;20422;-46
2021/12/31 10:03:03;;;;;;;;;;;;;;;;;;5096424;28;20065;-50
2021/12/31 10:05:31;;;;;;;;;;;20.20;47.10;;;;;;5113021;28;19982;-50
2021/12/31 10:07:58;;;;;;;;;;;20.20;47.70;;;;;;5093241;28;19931;-47
2021/12/31 10:10:26;;;;;;;;;;;20.30;47.80;;;;;;5091484;28;19932;-44
2021/12/31 10:12:53;;;;;;;;;;;20.30;47.80;;;;;;5093401;28;19950;-43
2021/12/31 10:15:20;;;;;;;;;;;20.30;47.80;;;;;;5095385;28;20028;-49
2021/12/31 10:17:47;;;;;;;;;;;20.30;47.80;;;;;;5112393;28;19923;-50
2021/12/31 10:20:15;;;;;;;;;;;20.30;48.30;;;;;;5112087;28;19943;-50
2021/12/31 10:22:43;;;;;;;;;;;20.30;47.80;;;;;;5114765;28;20351;-46
2021/12/31 10:25:16;;;;;;;;;;;20.30;47.70;;;;;;5110860;28;19923;-51
2021/12/31 10:27:43;;;;;;;;;;;20.30;47.80;;;;;;5094643;28;19962;-49
2021/12/31 10:30:10;;;;;;;;;;;20.40;48.00;;;;;;5113042;28;19987;-45
2021/12/31 10:32:40;;;;;;;;;;;20.30;47.90;;;;;;5098552;28;19923;-47
2021/12/31 10:35:10;;;;;;;;;;;20.40;48.00;;;;;;5089489;28;19924;-51
2021/12/31 10:37:45;;;;;;;;;;;20.40;48.00;;;;;;5112183;27;19927;-48
2021/12/31 10:40:12;;;;;;;;;;;20.40;47.90;;;;;;5109891;28;19924;-45
2021/12/31 10:42:40;;;;;;;;;;;20.40;47.90;;;;;;5107310;28;19993;-48
2021/12/31 10:45:07;;;;;;;;;;;20.40;47.80;;;;;;5091507;28;19934;-46
2021/12/31 10:47:35;;;;;;;;;;;20.40;47.80;;;;;;5106684;28;19924;-44
2021/12/31 10:50:08;;;;;;;;;;;20.40;47.80;;;;;;5090763;28;19931;-47
2021/12/31 10:52:38;;;;;;;;;;;20.40;47.80;;;;;;5083352;28;19928;-53
2021/12/31 10:55:16;;;;;;;;;;;20.40;47.90;;;;;;5106270;28;19924;-44
2021/12/31 10:57:43;;;;;;;;;;;20.40;47.90;;;;;;5100372;28;20014;-51
2021/12/31 11:00:10;;;;;;;;;;;20.40;47.90;;;;;;5102873;28;19932;-47
2021/12/31 11:02:37;;;;;;;;;;;20.40;47.90;;;;;;5087910;28;19924;-47
2021/12/31 11:05:05;;;;;;;;;;;20.40;47.90;;;;;;5107622;28;19978;-45
2021/12/31 11:07:31;;;;;;;;;;;20.40;47.90;;;;;;5108240;28;19932;-45
2021/12/31 11:09:59;;;;;;;;;;;20.40;47.90;;;;;;5086211;28;19923;-49
2021/12/31 11:12:27;;;;;;;;;;;20.40;47.90;;;;;;5089213;28;19932;-48
2021/12/31 11:14:54;;;;;;;;;;;20.40;47.90;;;;;;5105919;28;19932;-44
2021/12/31 11:17:21;;;;;;;;;;;20.40;47.90;;;;;;5090221;28;19946;-44
2021/12/31 11:19:50;;;;;;;;;;;20.40;47.90;;;;;;5104021;28;20061;-48
2021/12/31 11:22:17;;;;;;;;;;;20.40;47.90;;;;;;5087982;28;19942;-47
2021/12/31 11:24:44;;;;;;;;;;;20.30;47.80;;;;;;5089270;28;20020;-48
2021/12/31 11:27:29;;;;;;;;;;;20.30;47.80;;;;;;5090199;28;20022;-46
2021/12/31 11:29:56;;;;;;;;;;;20.40;47.90;;;;;;5087004;28;19928;-45
2021/12/31 11:32:38;;;;;;;;;;;20.30;47.80;;;;;;5089127;28;19945;-45
2021/12/31 11:35:24;;;;;;;;;;;20.30;47.70;;;;;;5088996;28;19985;-47
2021/12/31 11:37:52;;;;;;;;;;;20.30;47.80;;;;;;5102760;28;19924;-49
2021/12/31 11:40:36;;;;;;;;;;;20.40;47.80;;;;;;5090871;27;20304;-48
2021/12/31 11:43:22;;;;;;;;;;;20.30;47.70;;;;;;5088478;28;19950;-44
2021/12/31 11:46:08;;;;;;;;;;;20.30;47.70;;;;;;5090902;28;20181;-52
2021/12/31 11:48:54;;;;;;;;;;;20.40;47.80;;;;;;5103407;28;19984;-50
2021/12/31 11:51:22;;;;;;;;;;;20.40;47.80;;;;;;5088939;28;19924;-46
2021/12/31 11:54:08;;;;;;;;;;;20.40;47.80;;;;;;5088604;28;20015;-45
2021/12/31 11:56:59;;;;;;;;;;;20.40;47.80;;;;;;5097947;28;20370;-44
2021/12/31 11:59:31;;;;;;;;;;;20.30;47.70;;;;;;5079661;28;19924;-44
2021/12/31 12:02:08;;;;;;;;;;;20.40;47.80;;;;;;5110087;28;20094;-44
2021/12/31 12:04:35;;;;;;;;;;;20.40;47.80;;;;;;5085052;28;20365;-47
2021/12/31 12:07:03;;;;;;;;;;;20.40;47.80;;;;;;5084497;28;19941;-48
2021/12/31 12:09:48;;;;;;;;;;;20.40;47.80;;;;;;5087546;28;20013;-45
2021/12/31 12:12:15;;;;;;;;;;;20.30;47.70;;;;;;5075544;28;20387;-45
2021/12/31 12:14:45;;;;;;;;;;;20.40;47.80;;;;;;5087799;28;20384;-44
2021/12/31 12:17:12;;;;;;;;;;;20.30;47.70;;;;;;5082549;28;19931;-53
2021/12/31 12:19:57;;;;;;;;;;;20.30;47.70;;;;;;5089402;28;19938;-47
2021/12/31 12:22:25;;;;;;;;;;;20.30;47.70;;;;;;5089235;28;20326;-47
2021/12/31 12:24:52;;;;;;;;;;;20.30;47.70;;;;;;5112541;28;19971;-51
2021/12/31 12:27:19;;;;;;;;;;;20.40;47.80;;;;;;5095228;28;20034;-46
2021/12/31 12:29:47;;;;;;;;;;;20.30;47.70;;;;;;5112018;28;19924;-46
2021/12/31 12:32:15;;;;;;;;;;;20.30;47.70;;;;;;5090814;28;19934;-44
2021/12/31 12:34:42;;;;;;;;;;;20.30;47.70;;;;;;5089029;28;19984;-48
2021/12/31 12:37:10;;;;;;;;;;;20.40;47.90;;;;;;5089279;28;19931;-53
2021/12/31 12:39:37;;;;;;;;;;;20.40;47.90;;;;;;5086484;28;19924;-47
2021/12/31 12:42:07;;;;;;;;;;;20.40;48.00;;;;;;5105092;28;19924;-46
2021/12/31 12:44:34;;;;;;;;;;;20.40;48.00;;;;;;5094602;28;19924;-46
2021/12/31 12:47:03;;;;;;;;;;;20.40;48.20;;;;;;5094201;28;19977;-51
2021/12/31 12:49:30;;;;;;;;;;;20.40;48.30;;;;;;5089866;28;19936;-47
2021/12/31 12:52:06;;;;;;;;;;;20.40;48.40;;;;;;5094817;28;19968;-45
2021/12/31 12:54:33;;;;;;;;;;;20.50;48.50;;;;;;5094860;28;19959;-49
2021/12/31 12:57:03;;;;;;;;;;;20.50;48.70;;;;;;5094782;28;19935;-44
2021/12/31 12:59:29;;;;;;;;;;;20.60;48.70;;;;;;5095844;28;19927;-45
2021/12/31 13:01:57;;;;;;;;;;;20.70;48.80;;;;;;5097295;28;19923;-46
2021/12/31 13:04:27;;;;;;;;;;;20.70;48.90;;;;;;5095326;28;19934;-50
2021/12/31 13:06:59;;;;;;;;;;;20.70;48.90;;;;;;5096155;28;20590;-50
2021/12/31 13:09:29;;;;;;;;;;;20.80;49.00;;;;;;5094792;28;19923;-46
2021/12/31 13:11:59;;;;;;;;;;;20.80;49.00;;;;;;5113128;28;19928;-49
2021/12/31 13:14:26;;;;;;;;;;;20.80;49.00;;;;;;5094344;28;19959;-50
2021/12/31 13:16:53;;;;;;;;;;;20.80;49.20;;;;;;5095878;28;19946;-45
2021/12/31 13:19:28;;;;;;;;;;;20.90;49.30;;;;;;5092106;28;19932;-49
2021/12/31 13:21:57;;;;;;;;;;;20.90;49.30;;;;;;5097023;28;19928;-48
2021/12/31 13:24:26;;;;;;;;;;;20.90;49.40;;;;;;5092781;28;19956;-45
2021/12/31 13:26:53;;;;;;;;;;;20.90;49.70;;;;;;5091849;28;19928;-49
2021/12/31 13:29:28;;;;;;;;;;;20.90;49.70;;;;;;5093798;28;19949;-46
2021/12/31 13:32:04;;;;;;;;;;;20.90;49.60;;;;;;5110067;28;19967;-50
2021/12/31 13:34:38;;;;;;;;;;;20.90;49.50;;;;;;5096755;28;19924;-46
2021/12/31 13:37:05;;;;;;;;;;;21.00;49.50;;;;;;5105951;28;19971;-43
2021/12/31 13:39:38;;;;;;;;;;;20.90;49.40;;;;;;5105845;28;19935;-45
2021/12/31 13:42:06;;;;;;;;;;;20.90;49.40;;;;;;5094668;28;19977;-44
2021/12/31 13:44:34;;;;;;;;;;;20.90;49.40;;;;;;5094305;28;19924;-43
2021/12/31 13:47:05;;;;;;;;;;;20.90;49.40;;;;;;5106671;28;19924;-45
2021/12/31 13:49:33;;;;;;;;;;;20.90;49.50;;;;;;5090955;28;19997;-47
2021/12/31 13:52:03;;;;;;;;;;;20.90;49.50;;;;;;5107935;28;19941;-46
2021/12/31 13:54:34;;;;;;;;;;;20.90;49.50;;;;;;5085300;28;19936;-48
2021/12/31 13:57:01;;;;;;;;;;;20.90;49.50;;;;;;5100882;28;19928;-47
2021/12/31 13:59:28;;;;;;;;;;;20.90;49.50;;;;;;5106975;28;19950;-48
2021/12/31 14:02:15;;;;;;;;;;;20.90;49.50;;;;;;5090253;28;20031;-49
2021/12/31 14:05:01;;;;;;;;;;;20.90;49.60;;;;;;5088272;28;19932;-50
2021/12/31 14:07:35;;;;;;;;;;;20.90;49.60;;;;;;5108400;27;20010;-51
2021/12/31 14:10:05;;;;;;;;;;;20.90;49.60;;;;;;5103143;28;19928;-44
2021/12/31 14:12:31;;;;;;;;;;;20.80;49.60;;;;;;5088233;28;19982;-48
2021/12/31 14:14:58;;;;;;;;;;;20.90;49.60;;;;;;5104362;28;19950;-45
2021/12/31 14:17:25;;;;;;;;;;;20.80;49.50;;;;;;5092965;28;19992;-48
2021/12/31 14:19:52;;;;;;;;;;;20.90;49.60;;;;;;5081605;28;19928;-48
2021/12/31 14:22:19;;;;;;;;;;;20.90;49.70;;;;;;5106664;28;19973;-45
2021/12/31 14:24:47;;;;;;;;;;;20.80;49.60;;;;;;5089717;28;19942;-43
2021/12/31 14:27:14;;;;;;;;;;;20.80;49.60;;;;;;5111677;28;20339;-46
2021/12/31 14:29:41;;;;;;;;;;;20.80;49.60;;;;;;5087258;28;19970;-48